Tercio, Colorado
Current Conditions -  °F | °C
As of 8:32 AM on Saturday 22 Nov 2014 (Local Time) from KVTP Reporting Station
Clear Clear  
Wind Chill: 13°   Ceiling: Unl
Heat Index: 27°   Visibility: 10mi
Dew Point: 16°   Wind: 18mph
Humidity: 64%   Direction: 200°SSW
Pressure: 29.99"   Gusts: 29mph
Location:  37.1566°N, 104.956°W
Report Text: KVTP 221532Z AUTO 20016G25KT 160V240 10SM CLR M03/M09 A2999 RMK AO2 LTG DSNT S
Loading
Personal Weather Stations






























Interactive Weather Map New forecast layout! Learn more

10-Day Weather Forecast

Advertisements
Track Severe Weather on mobile